This is the latest recevied weather packets stored in our database for station/object N1PRS-9. If no packets are shown the sender has not sent any weather packets the latest 10 day(s).
| Time | Temp. | Humidity | Pressure | Rain* | Wind** | Luminosity | Snow |
|---|---|---|---|---|---|---|---|
| 1777952743 | 12.22° C | 73% | 1011.4 hPa | 0 mm | - | 0 W/m² | - |
| 1777951233 | 12.78° C | 73% | 1011.4 hPa | 0 mm | - | 0 W/m² | - |
| 1777950632 | 12.78° C | 72% | 1011.3 hPa | 0 mm | - | 0 W/m² | - |
| 1777950335 | 12.78° C | 73% | 1011.4 hPa | 0 mm | - | 0 W/m² | - |
| 1777948243 | 12.78° C | 71% | 1011.4 hPa | 0 mm | - | 0 W/m² | - |
| 1777947031 | 13.33° C | 70% | 1011.4 hPa | 0 mm | - | 0 W/m² | - |
| 1777945232 | 13.33° C | 68% | 1011.3 hPa | 0 mm | - | 0 W/m² | - |
| 1777944645 | 13.33° C | 67% | 1011.3 hPa | 0 mm | - | 0 W/m² | - |
| 1777944031 | 13.89° C | 66% | 1011.1 hPa | 0 mm | - | 0 W/m² | - |
| 1777943433 | 13.89° C | 65% | 1011 hPa | 0 mm | - | 0 W/m² | - |
| 1777942232 | 14.44° C | 63% | 1010.7 hPa | 0 mm | - | 0 W/m² | - |
| 1777940431 | 15° C | 59% | 1010.1 hPa | 0 mm | - | 0 W/m² | - |
| 1777938932 | 15.56° C | 57% | 1009.6 hPa | 0 mm | - | 0 W/m² | - |
| 1777938631 | 16.11° C | 56% | 1009.7 hPa | 0 mm | - | 0 W/m² | - |
| 1777938349 | 16.11° C | 56% | 1009.5 hPa | 0 mm | - | 0 W/m² | - |
| 1777937733 | 16.67° C | 55% | 1009.1 hPa | 0 mm | - | 12 W/m² | - |
| 1777935931 | 17.78° C | 51% | 1008.8 hPa | 0 mm | - | 42 W/m² | - |
| 1777935335 | 17.78° C | 50% | 1008.7 hPa | 0 mm | - | 47 W/m² | - |
| 1777934745 | 18.33° C | 49% | 1008.6 hPa | 0 mm | - | 53 W/m² | - |
| 1777930241 | 20.56° C | 43% | 1008.7 hPa | 0 mm | - | 390 W/m² | - |
| 1777928132 | 20.56° C | 42% | 1008.6 hPa | 0 mm | - | 543 W/m² | - |
| 1777927831 | 20.56° C | 41% | 1008.6 hPa | 0 mm | - | 555 W/m² | - |
| 1777927549 | 20.56° C | 42% | 1008.6 hPa | 0 mm | - | 584 W/m² | - |
| 1777926931 | 20.56° C | 41% | 1008.5 hPa | 0 mm | - | 621 W/m² | - |
| 1777926032 | 21.11° C | 40% | 1008.6 hPa | 0 mm | - | 668 W/m² | - |
* Rain latest hour (hover to see other rain measurements)
** Current wind speed in m/s (hover to see current wind gust speed)